Time;durP1;ratioP1;P1;durP2;ratioP2;P2;SDS_P1;SDS_P2;PMS_P1;PMS_P2;Temp;Humidity;BMP_temperature;BMP_pressure;BME280_temperature;BME280_humidity;BME280_pressure;Samples;Min_cycle;Max_cycle;Signal;HPM_P1;HPM_P2
2023/09/27 00:01:09;;;;;;;4.00;3.60;;;18.30;99.90;;;;;;4935982;29;20635;-74
2023/09/27 00:03:35;;;;;;;3.57;3.27;;;18.30;99.90;;;;;;4935619;29;20652;-77
2023/09/27 00:06:01;;;;;;;6.23;3.67;;;18.20;99.90;;;;;;4922991;29;20683;-74
2023/09/27 00:08:27;;;;;;;3.60;3.30;;;18.20;99.90;;;;;;4934968;29;21058;-73
2023/09/27 00:10:52;;;;;;;3.77;3.40;;;18.20;99.90;;;;;;4953587;29;20172;-73
2023/09/27 00:13:18;;;;;;;3.40;2.77;;;18.10;99.90;;;;;;4946145;29;20232;-73
2023/09/27 00:15:44;;;;;;;4.80;3.23;;;18.10;99.90;;;;;;4948109;29;20187;-74
2023/09/27 00:18:10;;;;;;;3.53;3.07;;;18.10;99.90;;;;;;4946296;29;20724;-74
2023/09/27 00:20:36;;;;;;;4.37;3.47;;;18.10;99.90;;;;;;4935784;29;20585;-74
2023/09/27 00:23:02;;;;;;;5.63;3.93;;;18.00;99.90;;;;;;4938669;29;20644;-74
2023/09/27 00:25:28;;;;;;;4.00;3.60;;;18.00;99.90;;;;;;4932888;29;20181;-74
2023/09/27 00:27:54;;;;;;;4.50;4.03;;;18.00;99.90;;;;;;4938456;29;20643;-74
2023/09/27 00:30:20;;;;;;;5.53;3.40;;;18.00;99.90;;;;;;4916817;29;20179;-74
2023/09/27 00:32:47;;;;;;;3.90;3.03;;;18.00;99.90;;;;;;4900790;29;21333;-74
2023/09/27 00:35:22;;;;;;;4.87;3.83;;;17.90;99.90;;;;;;4922817;29;20945;-74
2023/09/27 00:37:49;;;;;;;4.73;3.20;;;17.90;99.90;;;;;;4951776;29;20579;-74
2023/09/27 00:40:18;;;;;;;3.87;3.37;;;17.90;99.90;;;;;;4951698;29;20579;-74
2023/09/27 00:42:44;;;;;;;4.20;3.70;;;17.90;99.90;;;;;;4935627;29;20608;-74
2023/09/27 00:45:10;;;;;;;4.17;3.40;;;17.90;99.90;;;;;;4947134;29;20644;-74
2023/09/27 00:47:37;;;;;;;4.57;3.37;;;17.80;99.90;;;;;;4942628;29;20922;-74
2023/09/27 00:50:03;;;;;;;5.20;3.67;;;17.80;99.90;;;;;;4951479;29;20625;-74
2023/09/27 00:52:30;;;;;;;5.50;4.53;;;17.80;99.90;;;;;;4919561;29;20616;-74
2023/09/27 00:54:57;;;;;;;3.57;3.03;;;17.70;99.90;;;;;;4916480;29;20733;-74
2023/09/27 00:57:23;;;;;;;4.20;3.43;;;17.70;99.90;;;;;;4932508;29;20589;-74
2023/09/27 00:59:49;;;;;;;4.47;4.00;;;17.70;99.90;;;;;;4916569;29;20597;-74
2023/09/27 01:02:16;;;;;;;6.77;4.27;;;17.70;99.90;;;;;;4916557;29;20648;-74
2023/09/27 01:04:43;;;;;;;3.63;3.20;;;17.70;99.90;;;;;;4918116;29;20656;-74
2023/09/27 01:07:09;;;;;;;4.50;3.97;;;17.70;99.90;;;;;;4943120;29;20588;-74
2023/09/27 01:09:37;;;;;;;4.80;4.20;;;17.70;99.90;;;;;;4951423;29;20663;-74
2023/09/27 01:12:03;;;;;;;4.33;3.93;;;17.70;99.90;;;;;;4950977;29;20624;-74
2023/09/27 01:14:30;;;;;;;6.30;3.63;;;17.70;99.90;;;;;;4932023;29;20595;-74
2023/09/27 01:17:10;;;;;;;5.37;3.77;;;17.60;99.90;;;;;;4937355;29;20583;-74
2023/09/27 01:19:38;;;;;;;4.20;3.67;;;17.60;99.90;;;;;;4946650;29;20600;-74
2023/09/27 01:22:04;;;;;;;6.23;4.23;;;17.60;99.90;;;;;;4946495;29;20646;-74
2023/09/27 01:24:32;;;;;;;8.30;4.20;;;17.60;99.90;;;;;;4930586;29;20592;-74
2023/09/27 01:27:01;;;;;;;4.13;3.50;;;17.60;99.90;;;;;;4931346;29;20595;-74
2023/09/27 01:29:27;;;;;;;4.80;3.70;;;17.60;99.90;;;;;;4954553;29;20659;-74
2023/09/27 01:31:53;;;;;;;4.80;3.53;;;17.60;99.90;;;;;;4946532;29;20620;-74
2023/09/27 01:34:19;;;;;;;5.17;3.43;;;17.60;99.90;;;;;;4946334;29;20176;-74
2023/09/27 01:36:45;;;;;;;3.73;3.43;;;17.50;99.90;;;;;;4952248;28;20616;-74
2023/09/27 01:39:10;;;;;;;4.00;3.60;;;17.50;99.90;;;;;;4943243;29;20623;-74
2023/09/27 01:41:36;;;;;;;3.60;3.30;;;17.50;99.90;;;;;;4950999;29;20243;-74
2023/09/27 01:44:02;;;;;;;3.90;3.37;;;17.40;99.90;;;;;;4943159;29;20196;-74
2023/09/27 01:46:27;;;;;;;6.17;4.60;;;17.40;99.90;;;;;;4943068;29;20177;-74
2023/09/27 01:48:53;;;;;;;4.10;3.70;;;17.30;99.90;;;;;;4953839;29;20204;-74
2023/09/27 01:51:19;;;;;;;5.40;3.23;;;17.30;99.90;;;;;;4955579;29;20176;-74
2023/09/27 01:53:45;;;;;;;6.80;4.20;;;17.30;99.90;;;;;;4946226;29;20693;-74
2023/09/27 01:56:10;;;;;;;4.50;4.10;;;17.20;99.90;;;;;;4932779;29;20599;-74
2023/09/27 01:58:36;;;;;;;3.80;3.27;;;17.20;99.90;;;;;;4943828;29;20585;-74
2023/09/27 02:01:03;;;;;;;5.20;4.30;;;17.20;99.90;;;;;;4941899;29;20188;-74
2023/09/27 02:03:32;;;;;;;4.53;4.10;;;17.10;99.90;;;;;;4952401;29;20670;-75
2023/09/27 02:05:57;;;;;;;7.10;4.33;;;17.10;99.90;;;;;;4945741;29;20591;-74
2023/09/27 02:08:23;;;;;;;4.97;4.47;;;17.00;99.90;;;;;;4946028;29;20632;-74
2023/09/27 02:10:52;;;;;;;5.37;4.87;;;17.00;99.90;;;;;;4935524;29;21166;-74
2023/09/27 02:13:18;;;;;;;5.60;4.47;;;17.00;99.90;;;;;;4948582;29;20220;-75
2023/09/27 02:15:43;;;;;;;6.13;5.47;;;16.90;99.90;;;;;;4927795;29;20592;-74
2023/09/27 02:18:09;;;;;;;4.97;4.47;;;16.90;99.90;;;;;;4953801;29;20192;-74
2023/09/27 02:20:35;;;;;;;6.03;4.80;;;16.90;99.90;;;;;;4953812;29;20570;-74
2023/09/27 02:23:02;;;;;;;4.57;4.17;;;16.90;99.90;;;;;;4947288;29;20646;-74
2023/09/27 02:25:27;;;;;;;6.00;5.50;;;16.90;99.90;;;;;;4947174;29;20605;-74
2023/09/27 02:27:53;;;;;;;4.70;4.30;;;16.80;99.90;;;;;;4944540;28;20235;-74
2023/09/27 02:30:19;;;;;;;4.83;4.43;;;16.80;99.90;;;;;;4948660;29;20181;-74
2023/09/27 02:32:45;;;;;;;5.47;4.70;;;16.80;99.90;;;;;;4934351;29;20189;-74
2023/09/27 02:35:19;;;;;;;5.90;5.27;;;16.70;99.90;;;;;;4947094;29;20301;-74
2023/09/27 02:37:45;;;;;;;6.03;4.67;;;16.70;99.90;;;;;;4953149;29;20594;-74
2023/09/27 02:40:11;;;;;;;4.40;4.00;;;16.60;99.90;;;;;;4953233;29;20619;-74
2023/09/27 02:42:48;;;;;;;5.27;4.40;;;16.60;99.90;;;;;;4953149;29;20201;-74
2023/09/27 02:45:14;;;;;;;7.40;5.40;;;16.60;99.90;;;;;;4954245;29;20618;-74
2023/09/27 02:47:45;;;;;;;4.77;4.37;;;16.60;99.90;;;;;;4945207;29;20585;-74
2023/09/27 02:50:12;;;;;;;6.57;4.67;;;16.50;99.90;;;;;;4953124;29;20591;-74
2023/09/27 02:52:40;;;;;;;5.30;4.57;;;16.50;99.90;;;;;;4946221;29;20707;-74
2023/09/27 02:55:08;;;;;;;5.07;4.67;;;16.50;99.90;;;;;;4952891;29;20946;-74
2023/09/27 02:57:34;;;;;;;5.67;4.33;;;16.50;99.90;;;;;;4929057;29;20588;-74
2023/09/27 03:00:00;;;;;;;4.47;4.00;;;16.50;99.90;;;;;;4944920;29;20588;-74
2023/09/27 03:02:26;;;;;;;4.67;4.27;;;16.50;99.90;;;;;;4946137;29;20614;-75
2023/09/27 03:04:52;;;;;;;5.10;4.60;;;16.50;99.90;;;;;;4954135;29;20184;-74
2023/09/27 03:07:18;;;;;;;7.30;4.17;;;16.50;99.90;;;;;;4947344;29;20652;-73
2023/09/27 03:09:44;;;;;;;6.60;4.60;;;16.50;99.90;;;;;;4932541;29;20636;-74
2023/09/27 03:12:10;;;;;;;7.17;4.83;;;16.50;99.90;;;;;;4939094;29;20215;-74
2023/09/27 03:14:37;;;;;;;8.63;5.40;;;16.50;99.90;;;;;;4950698;29;20623;-76
2023/09/27 03:17:03;;;;;;;6.90;4.80;;;16.60;99.90;;;;;;4932816;29;20584;-76
2023/09/27 03:19:28;;;;;;;5.80;4.60;;;16.50;99.90;;;;;;4905388;29;20604;-76
2023/09/27 03:21:54;;;;;;;7.00;4.07;;;16.60;99.90;;;;;;4943303;29;20640;-76
2023/09/27 03:24:20;;;;;;;5.50;4.50;;;16.60;99.90;;;;;;4938739;29;20200;-76
2023/09/27 03:26:48;;;;;;;4.97;4.47;;;16.60;99.90;;;;;;4918468;29;20192;-75
2023/09/27 03:29:14;;;;;;;5.03;4.20;;;16.60;99.90;;;;;;4939497;29;20212;-75
2023/09/27 03:31:40;;;;;;;5.40;4.70;;;16.60;99.90;;;;;;4933278;29;20594;-76
2023/09/27 03:34:06;;;;;;;6.90;4.93;;;16.60;99.90;;;;;;4952329;29;20182;-75
2023/09/27 03:36:34;;;;;;;5.50;5.00;;;16.60;99.90;;;;;;4920297;29;20180;-75
2023/09/27 03:38:59;;;;;;;6.17;4.70;;;16.60;99.90;;;;;;4936586;29;20597;-75
2023/09/27 03:41:25;;;;;;;5.87;5.30;;;16.60;99.90;;;;;;4945457;29;20592;-76
2023/09/27 03:43:51;;;;;;;5.13;4.57;;;16.60;99.90;;;;;;4932817;29;20715;-75
2023/09/27 03:46:18;;;;;;;7.70;6.00;;;16.50;99.90;;;;;;4945680;29;20192;-76
2023/09/27 03:48:44;;;;;;;5.77;5.20;;;16.50;99.90;;;;;;4943887;29;20684;-76
2023/09/27 03:51:10;;;;;;;5.83;4.70;;;16.50;99.90;;;;;;4952034;29;20627;-76
2023/09/27 03:53:36;;;;;;;5.00;4.60;;;16.50;99.90;;;;;;4937985;29;20649;-76
2023/09/27 03:56:01;;;;;;;5.50;4.80;;;16.50;99.90;;;;;;4945051;29;20179;-76
2023/09/27 03:58:27;;;;;;;5.80;4.73;;;16.50;99.90;;;;;;4916470;29;20181;-74
2023/09/27 04:00:53;;;;;;;5.77;4.70;;;16.50;99.90;;;;;;4951774;29;20185;-74
2023/09/27 04:03:22;;;;;;;5.60;5.03;;;16.50;99.90;;;;;;4946538;29;20688;-73
2023/09/27 04:06:00;;;;;;;6.00;4.97;;;16.50;99.90;;;;;;4927989;29;20192;-77
2023/09/27 04:08:26;;;;;;;4.40;4.00;;;16.50;99.90;;;;;;4937216;29;20731;-77
2023/09/27 04:10:52;;;;;;;6.40;5.50;;;16.50;99.90;;;;;;4917734;29;20744;-77
2023/09/27 04:13:17;;;;;;;5.73;5.13;;;16.50;99.90;;;;;;4953163;28;20215;-77
2023/09/27 04:15:43;;;;;;;5.37;4.80;;;16.50;99.90;;;;;;4956502;29;20169;-76
2023/09/27 04:18:09;;;;;;;6.90;5.77;;;16.50;99.90;;;;;;4954497;29;20259;-76
2023/09/27 04:20:34;;;;;;;5.47;4.63;;;16.40;99.90;;;;;;4951971;29;20208;-76
2023/09/27 04:23:02;;;;;;;6.17;5.67;;;16.40;99.90;;;;;;4952892;29;20295;-76
2023/09/27 04:25:28;;;;;;;6.67;6.00;;;16.40;99.90;;;;;;4951814;29;20183;-76
2023/09/27 04:27:53;;;;;;;5.90;5.40;;;16.40;99.90;;;;;;4952852;29;20584;-76
2023/09/27 04:30:19;;;;;;;6.50;5.90;;;16.40;99.90;;;;;;4952959;29;20633;-76
2023/09/27 04:32:53;;;;;;;5.73;5.13;;;16.30;99.90;;;;;;4919281;29;20256;-75
2023/09/27 04:35:20;;;;;;;8.53;5.33;;;16.30;99.90;;;;;;4945183;29;21175;-76
2023/09/27 04:37:46;;;;;;;5.83;5.20;;;16.30;99.90;;;;;;4950660;29;20600;-76
2023/09/27 04:40:12;;;;;;;5.40;4.90;;;16.30;99.90;;;;;;4944190;29;20643;-76
2023/09/27 04:42:41;;;;;;;5.50;5.00;;;16.30;99.90;;;;;;4961355;23;20192;-76
2023/09/27 04:45:09;;;;;;;9.00;5.10;;;16.30;99.90;;;;;;4925506;29;20612;-78
2023/09/27 04:47:35;;;;;;;6.90;4.80;;;16.20;99.90;;;;;;4916482;29;21155;-78
2023/09/27 04:50:00;;;;;;;5.40;4.90;;;16.20;99.90;;;;;;4934182;29;20665;-77
2023/09/27 04:52:26;;;;;;;5.40;4.90;;;16.30;99.90;;;;;;4943345;29;20223;-77
2023/09/27 04:54:56;;;;;;;5.27;4.10;;;16.30;99.90;;;;;;4922132;29;20177;-77
2023/09/27 04:57:23;;;;;;;4.60;4.27;;;16.30;99.90;;;;;;4918830;29;20701;-77
2023/09/27 04:59:52;;;;;;;8.40;4.90;;;16.30;99.90;;;;;;4933833;29;20601;-78
2023/09/27 05:02:18;;;;;;;8.20;4.30;;;16.20;99.90;;;;;;4935247;29;20619;-78
2023/09/27 05:04:45;;;;;;;5.13;4.63;;;16.20;99.90;;;;;;4934154;29;20956;-77
2023/09/27 05:07:10;;;;;;;5.63;4.80;;;16.10;99.90;;;;;;4908820;29;20688;-78
2023/09/27 05:09:36;;;;;;;5.63;5.13;;;16.10;99.90;;;;;;4933594;29;20735;-78
2023/09/27 05:12:03;;;;;;;4.50;4.10;;;16.10;99.90;;;;;;4931105;29;20224;-79
2023/09/27 05:14:29;;;;;;;5.50;4.47;;;16.10;99.90;;;;;;4948683;29;20632;-78
2023/09/27 05:16:54;;;;;;;6.47;5.83;;;16.00;99.90;;;;;;4947533;29;20584;-79
2023/09/27 05:19:20;;;;;;;8.43;5.57;;;16.00;99.90;;;;;;4930883;29;20185;-78
2023/09/27 05:21:46;;;;;;;7.93;5.50;;;16.00;99.90;;;;;;4939781;29;20677;-79
2023/09/27 05:24:11;;;;;;;6.93;5.10;;;15.90;99.90;;;;;;4939120;29;20185;-79
2023/09/27 05:26:37;;;;;;;6.20;5.60;;;15.90;99.90;;;;;;4945148;29;20172;-78
2023/09/27 05:29:03;;;;;;;6.67;5.53;;;15.90;99.90;;;;;;4937866;29;20284;-78
2023/09/27 05:31:29;;;;;;;6.60;5.90;;;15.90;99.90;;;;;;4931140;29;20181;-79
2023/09/27 05:33:54;;;;;;;9.60;6.73;;;15.80;99.90;;;;;;4935548;29;20619;-78
2023/09/27 05:36:20;;;;;;;8.47;5.70;;;15.90;99.90;;;;;;4919368;29;20712;-78
2023/09/27 05:38:46;;;;;;;5.00;4.50;;;15.90;99.90;;;;;;4933099;29;20183;-78
2023/09/27 05:41:12;;;;;;;6.43;5.83;;;15.90;99.90;;;;;;4932936;29;20657;-79
2023/09/27 05:43:37;;;;;;;8.80;5.60;;;15.90;99.90;;;;;;4924767;29;20743;-79
2023/09/27 05:46:03;;;;;;;6.23;5.63;;;15.90;99.90;;;;;;4932854;29;20189;-78
2023/09/27 05:48:30;;;;;;;7.50;6.10;;;16.00;99.90;;;;;;4928292;29;20215;-79
2023/09/27 05:50:56;;;;;;;7.70;6.87;;;16.00;99.90;;;;;;4933834;29;20173;-78
2023/09/27 05:53:22;;;;;;;7.00;6.00;;;16.00;99.90;;;;;;4930105;29;21203;-76
2023/09/27 05:55:48;;;;;;;9.07;5.33;;;16.10;99.90;;;;;;4931802;29;20177;-75
2023/09/27 05:58:14;;;;;;;6.73;5.60;;;16.20;99.90;;;;;;4926429;29;20177;-76
2023/09/27 06:00:46;;;;;;;8.67;5.83;;;16.30;99.90;;;;;;4933923;29;20639;-76
2023/09/27 06:03:12;;;;;;;5.73;4.83;;;16.40;99.90;;;;;;4953561;28;20611;-75
2023/09/27 06:05:39;;;;;;;4.97;4.30;;;16.50;99.90;;;;;;4957491;29;20590;-76
2023/09/27 06:08:05;;;;;;;5.50;4.40;;;16.50;99.90;;;;;;4950372;29;20211;-75
2023/09/27 06:10:31;;;;;;;6.07;4.97;;;16.60;99.90;;;;;;4932249;29;20582;-76
2023/09/27 06:12:57;;;;;;;7.97;5.90;;;16.70;99.90;;;;;;4938157;29;20988;-75
2023/09/27 06:15:22;;;;;;;6.80;6.10;;;16.70;99.90;;;;;;4961229;29;20222;-76
2023/09/27 06:17:51;;;;;;;5.40;4.30;;;16.80;99.90;;;;;;4955612;29;21167;-76
2023/09/27 06:20:20;;;;;;;5.07;4.60;;;16.90;99.90;;;;;;4939103;29;20265;-76
2023/09/27 06:22:50;;;;;;;4.77;4.17;;;17.00;99.90;;;;;;4934916;29;20621;-76
2023/09/27 06:25:17;;;;;;;5.23;4.73;;;17.00;99.90;;;;;;4918547;29;20617;-76
2023/09/27 06:27:43;;;;;;;5.53;5.00;;;17.10;99.90;;;;;;4948632;29;20580;-75
2023/09/27 06:30:09;;;;;;;7.13;6.43;;;17.10;99.90;;;;;;4937827;29;20604;-76
2023/09/27 06:32:36;;;;;;;5.37;4.87;;;17.20;99.90;;;;;;4929551;29;20592;-76
2023/09/27 06:35:12;;;;;;;5.67;4.00;;;17.30;99.90;;;;;;4954061;29;20611;-76
2023/09/27 06:37:40;;;;;;;5.63;4.97;;;17.40;99.90;;;;;;4938263;29;20603;-76
2023/09/27 06:40:09;;;;;;;5.90;5.30;;;17.50;99.90;;;;;;4938957;29;20589;-76
2023/09/27 06:42:36;;;;;;;5.70;4.87;;;17.50;99.90;;;;;;4932472;29;20601;-76
2023/09/27 06:45:02;;;;;;;4.63;4.10;;;17.50;99.90;;;;;;4935357;29;20671;-75
2023/09/27 06:47:28;;;;;;;6.87;4.57;;;17.60;99.90;;;;;;4946290;29;20616;-76
2023/09/27 06:49:55;;;;;;;6.57;5.00;;;17.60;99.90;;;;;;4953516;29;20666;-76
2023/09/27 06:52:22;;;;;;;8.33;5.93;;;17.70;99.90;;;;;;4925940;29;20591;-76
2023/09/27 06:54:48;;;;;;;7.13;5.93;;;17.70;99.90;;;;;;4930378;29;20621;-76
2023/09/27 06:57:14;;;;;;;9.30;5.30;;;17.80;99.90;;;;;;4928923;29;20599;-74
2023/09/27 06:59:40;;;;;;;7.07;5.40;;;17.80;99.90;;;;;;4944825;29;20592;-75
2023/09/27 07:02:06;;;;;;;8.00;4.90;;;17.80;99.90;;;;;;4934845;29;21143;-75
2023/09/27 07:04:31;;;;;;;5.27;4.77;;;17.90;99.90;;;;;;4931264;29;20216;-75
2023/09/27 07:06:57;;;;;;;5.33;4.23;;;17.90;99.90;;;;;;4934854;29;20994;-75
2023/09/27 07:09:23;;;;;;;9.90;5.33;;;17.90;99.90;;;;;;4933392;29;20288;-75
2023/09/27 07:11:49;;;;;;;6.53;4.90;;;17.90;99.90;;;;;;4915053;29;21023;-75
2023/09/27 07:14:19;;;;;;;6.87;5.23;;;17.90;99.90;;;;;;4928070;29;20205;-75
2023/09/27 07:16:46;;;;;;;5.63;4.50;;;17.90;99.90;;;;;;4932130;29;20193;-75
2023/09/27 07:19:13;;;;;;;6.00;5.23;;;17.90;99.90;;;;;;4935532;29;21087;-75
2023/09/27 07:21:39;;;;;;;5.80;4.90;;;18.00;99.90;;;;;;4935637;29;20632;-76
2023/09/27 07:24:05;;;;;;;6.50;3.70;;;18.00;99.90;;;;;;4931264;29;20657;-76
2023/09/27 07:26:31;;;;;;;4.87;4.40;;;18.10;99.90;;;;;;4928297;29;20632;-75
2023/09/27 07:28:57;;;;;;;6.23;4.93;;;18.20;99.90;;;;;;4925042;29;21223;-75
2023/09/27 07:31:23;;;;;;;5.60;5.00;;;18.30;99.90;;;;;;4925721;29;20619;-75
2023/09/27 07:33:52;;;;;;;4.40;3.90;;;18.50;99.90;;;;;;4934204;29;20193;-75
2023/09/27 07:36:20;;;;;;;4.30;3.90;;;18.50;99.90;;;;;;4929492;29;20268;-75
2023/09/27 07:38:47;;;;;;;5.13;4.60;;;18.60;99.90;;;;;;4912697;29;20588;-75
2023/09/27 07:41:15;;;;;;;5.20;4.80;;;18.70;99.90;;;;;;4933869;29;20617;-76
2023/09/27 07:43:41;;;;;;;5.40;4.60;;;18.80;99.90;;;;;;4916444;29;21010;-75
2023/09/27 07:46:14;;;;;;;4.97;4.53;;;18.90;99.90;;;;;;5079886;28;20715;-76
2023/09/27 07:48:42;;;;;;;6.40;4.57;;;19.00;99.90;;;;;;5086206;28;20624;-76
2023/09/27 07:51:21;;;;;;;5.97;5.37;;;19.10;99.90;;;;;;5086769;28;20627;-76
2023/09/27 07:53:47;;;;;;;5.53;4.40;;;19.20;99.90;;;;;;5074946;28;20610;-76
2023/09/27 07:56:22;;;;;;;5.10;4.33;;;19.30;99.90;;;;;;5066324;28;20677;-76
2023/09/27 07:58:52;;;;;;;5.67;5.13;;;19.40;99.90;;;;;;5066420;28;20207;-76
2023/09/27 08:01:20;;;;;;;5.50;5.00;;;19.50;99.90;;;;;;5049575;28;20597;-76
2023/09/27 08:03:53;;;;;;;6.33;4.53;;;19.70;99.90;;;;;;5065992;28;20614;-76
2023/09/27 08:06:19;;;;;;;8.00;5.00;;;19.90;99.90;;;;;;5072362;28;20594;-76
2023/09/27 08:08:45;;;;;;;6.27;5.00;;;19.90;99.90;;;;;;5066299;28;20587;-76
2023/09/27 08:11:14;;;;;;;4.70;4.17;;;20.00;99.90;;;;;;5067819;28;20598;-75
2023/09/27 08:13:40;;;;;;;6.10;5.00;;;20.00;99.90;;;;;;5067365;28;21113;-74
2023/09/27 08:16:07;;;;;;;8.60;4.60;;;20.20;99.90;;;;;;5066997;28;20598;-74
2023/09/27 08:18:42;;;;;;;7.50;5.33;;;20.80;99.90;;;;;;5065924;28;20671;-75
2023/09/27 08:21:08;;;;;;;6.40;4.20;;;21.50;99.90;;;;;;5065185;28;20652;-75
2023/09/27 08:23:34;;;;;;;6.10;3.80;;;22.10;99.90;;;;;;5066252;28;21054;-75
2023/09/27 08:26:00;;;;;;;4.23;3.50;;;22.70;99.90;;;;;;5083122;28;20622;-74
2023/09/27 08:28:29;;;;;;;9.40;4.10;;;23.10;99.90;;;;;;5068025;28;20697;-74
2023/09/27 08:30:59;;;;;;;4.20;3.80;;;23.10;99.90;;;;;;5067224;28;20618;-75
2023/09/27 08:33:25;;;;;;;7.50;4.40;;;23.30;99.90;;;;;;5065928;28;20614;-75
2023/09/27 08:35:55;;;;;;;3.43;3.10;;;23.70;99.90;;;;;;5065993;28;20667;-75
2023/09/27 08:38:21;;;;;;;4.23;3.30;;;24.10;99.90;;;;;;5067334;28;20583;-76
2023/09/27 08:40:48;;;;;;;4.80;3.43;;;24.40;99.90;;;;;;5067603;28;20678;-76
2023/09/27 08:43:15;;;;;;;4.90;3.33;;;24.80;99.90;;;;;;5053120;28;20645;-75
2023/09/27 08:45:42;;;;;;;3.70;2.63;;;25.30;99.90;;;;;;5049298;28;20637;-75
2023/09/27 08:48:16;;;;;;;5.20;3.07;;;25.80;99.90;;;;;;5065877;28;20582;-76
2023/09/27 08:50:43;;;;;;;2.90;2.47;;;26.40;99.90;;;;;;5065688;28;21211;-76
2023/09/27 08:53:10;;;;;;;4.77;2.90;;;26.80;99.90;;;;;;5065583;28;20621;-76
2023/09/27 08:55:38;;;;;;;3.70;2.37;;;27.40;99.90;;;;;;5064248;28;20620;-76
2023/09/27 08:58:05;;;;;;;3.23;2.47;;;27.90;99.90;;;;;;5052276;28;20598;-76
2023/09/27 09:00:32;;;;;;;4.33;2.50;;;28.00;99.90;;;;;;5052180;28;20589;-76
2023/09/27 09:03:00;;;;;;;5.20;2.40;;;28.00;99.90;;;;;;5035204;28;20619;-76
2023/09/27 09:05:27;;;;;;;2.70;2.03;;;28.10;99.90;;;;;;5052976;28;20731;-76
2023/09/27 09:07:55;;;;;;;3.97;2.20;;;28.00;99.90;;;;;;5052121;28;20933;-76
2023/09/27 09:10:22;;;;;;;2.80;1.90;;;28.00;99.90;;;;;;5053434;28;20674;-75
2023/09/27 09:12:49;;;;;;;3.43;2.50;;;28.30;99.90;;;;;;5051834;28;20633;-76
2023/09/27 09:15:44;;;;;;;3.50;3.00;;;28.70;99.90;;;;;;5034934;28;20595;-75
2023/09/27 09:18:30;;;;;;;2.97;2.67;;;28.60;95.90;;;;;;5054188;28;20618;-75
2023/09/27 09:21:00;;;;;;;3.67;2.70;;;28.90;99.90;;;;;;5051845;28;20591;-75
2023/09/27 09:23:36;;;;;;;4.17;2.80;;;29.00;99.60;;;;;;5053175;28;20608;-75
2023/09/27 09:26:05;;;;;;;2.97;2.30;;;28.90;99.70;;;;;;5051032;28;20639;-75
2023/09/27 09:28:32;;;;;;;4.00;2.20;;;29.00;99.00;;;;;;5053063;28;20576;-76
2023/09/27 09:30:57;;;;;;;6.90;2.83;;;29.00;98.10;;;;;;5051188;28;20576;-75
2023/09/27 09:33:24;;;;;;;3.00;1.70;;;28.90;97.50;;;;;;5052968;28;20614;-75
2023/09/27 09:35:51;;;;;;;3.57;2.50;;;29.10;98.70;;;;;;5051356;28;20204;-75
2023/09/27 09:38:26;;;;;;;5.20;2.27;;;29.30;97.80;;;;;;5052568;28;20684;-75
2023/09/27 09:40:57;;;;;;;2.60;1.80;;;29.50;96.20;;;;;;5053488;28;20576;-75
2023/09/27 09:43:36;;;;;;;3.60;2.50;;;29.70;96.10;;;;;;5053626;28;20612;-75
2023/09/27 09:46:03;;;;;;;5.03;1.90;;;29.90;95.60;;;;;;5034999;28;20670;-74
2023/09/27 09:48:31;;;;;;;3.97;2.10;;;30.10;95.30;;;;;;5052249;28;20578;-74
2023/09/27 09:51:06;;;;;;;3.27;2.07;;;30.40;95.50;;;;;;5051215;28;20582;-75
2023/09/27 09:53:38;;;;;;;2.30;1.77;;;30.70;95.30;;;;;;5028001;28;20644;-75
2023/09/27 09:56:06;;;;;;;3.80;2.17;;;31.10;94.60;;;;;;5043869;28;21117;-76
2023/09/27 09:58:54;;;;;;;4.03;2.43;;;31.40;92.90;;;;;;5051551;28;20984;-76
2023/09/27 10:01:21;;;;;;;3.70;1.73;;;31.50;80.10;;;;;;5051329;28;20587;-75
2023/09/27 10:03:49;;;;;;;6.50;1.73;;;31.70;91.20;;;;;;5051249;28;20607;-75
2023/09/27 10:06:22;;;;;;;3.13;1.53;;;32.00;90.10;;;;;;5051909;28;20591;-76
2023/09/27 10:08:49;;;;;;;2.80;1.63;;;32.40;85.80;;;;;;5051374;28;20576;-75
2023/09/27 10:11:16;;;;;;;2.70;1.60;;;32.50;88.30;;;;;;5051745;28;20579;-75
2023/09/27 10:13:43;;;;;;;4.40;1.30;;;32.30;83.70;;;;;;5051924;28;20637;-75
2023/09/27 10:16:09;;;;;;;3.73;1.60;;;32.20;84.00;;;;;;5050382;28;20594;-76
2023/09/27 10:18:40;;;;;;;3.03;1.73;;;32.00;83.80;;;;;;5050815;28;20920;-76
2023/09/27 10:21:07;;;;;;;3.70;1.40;;;32.00;84.10;;;;;;5050591;28;20661;-76
2023/09/27 10:23:53;;;;;;;5.70;1.60;;;32.10;85.40;;;;;;5050843;28;20614;-76
2023/09/27 10:26:27;;;;;;;4.33;2.10;;;32.10;83.10;;;;;;5051375;28;20598;-76
2023/09/27 10:29:10;;;;;;;2.40;1.40;;;32.10;81.90;;;;;;5051942;28;21120;-76
2023/09/27 10:31:47;;;;;;;3.30;1.63;;;32.10;79.90;;;;;;5052100;28;20618;-75
2023/09/27 10:34:27;;;;;;;2.00;1.10;;;32.10;78.90;;;;;;5050297;28;20615;-75
2023/09/27 10:36:55;;;;;;;2.37;1.60;;;32.10;79.90;;;;;;5051666;28;20583;-75
2023/09/27 10:39:21;;;;;;;3.10;1.43;;;32.30;79.80;;;;;;5050552;28;20583;-75
2023/09/27 10:41:53;;;;;;;2.33;1.30;;;32.30;78.10;;;;;;5050178;28;20594;-74
2023/09/27 10:44:30;;;;;;;3.33;1.10;;;32.30;76.50;;;;;;5051004;28;20659;-74
2023/09/27 10:46:57;;;;;;;2.00;1.27;;;32.30;75.10;;;;;;5016001;28;20595;-75
2023/09/27 10:49:26;;;;;;;3.60;1.20;;;32.50;77.30;;;;;;5051352;28;20582;-75
2023/09/27 10:51:53;;;;;;;4.13;1.33;;;32.70;75.70;;;;;;5049513;28;20587;-76
2023/09/27 10:54:23;;;;;;;3.10;1.30;;;32.70;74.50;;;;;;5051031;28;20625;-75
2023/09/27 10:56:55;;;;;;;2.63;1.70;;;32.90;74.60;;;;;;5057513;22;21252;-74
2023/09/27 10:59:23;;;;;;;2.00;1.27;;;32.90;71.70;;;;;;5014899;28;20615;-74
2023/09/27 11:01:48;;;;;;;2.17;1.20;;;32.60;70.10;;;;;;5011340;28;20664;-74
2023/09/27 11:04:14;;;;;;;4.17;1.87;;;32.50;70.80;;;;;;5027844;28;20795;-76
2023/09/27 11:06:45;;;;;;;3.00;1.40;;;32.30;70.60;;;;;;5009771;28;20202;-76
2023/09/27 11:09:20;;;;;;;2.80;1.33;;;32.10;68.60;;;;;;4976415;28;20181;-76
2023/09/27 11:11:48;;;;;;;3.30;1.20;;;32.00;70.70;;;;;;5004374;28;20687;-76
2023/09/27 11:14:27;;;;;;;5.67;1.60;;;31.90;70.80;;;;;;5003662;28;20590;-76
2023/09/27 11:16:53;;;;;;;2.10;1.10;;;31.90;70.60;;;;;;5009880;28;20622;-76
2023/09/27 11:19:29;;;;;;;3.23;1.20;;;31.80;70.80;;;;;;5009622;28;21241;-76
2023/09/27 11:21:55;;;;;;;2.10;0.90;;;31.80;71.00;;;;;;5011153;28;20625;-76
2023/09/27 11:24:21;;;;;;;1.90;1.40;;;31.90;71.40;;;;;;5010867;28;20723;-75
2023/09/27 11:26:47;;;;;;;2.23;1.23;;;31.80;69.70;;;;;;5010926;28;21082;-76
2023/09/27 11:29:13;;;;;;;2.50;1.57;;;31.50;68.10;;;;;;5002590;28;20678;-75
2023/09/27 11:31:39;;;;;;;2.70;1.20;;;31.20;68.70;;;;;;5011081;28;20535;-75
2023/09/27 11:34:12;;;;;;;3.20;1.30;;;31.10;69.70;;;;;;5009832;28;20263;-76
2023/09/27 11:36:45;;;;;;;2.20;1.00;;;30.90;69.30;;;;;;5013095;28;20714;-76
2023/09/27 11:39:15;;;;;;;3.60;1.63;;;30.90;70.80;;;;;;5011211;28;20588;-76
2023/09/27 11:41:43;;;;;;;8.00;1.73;;;30.90;70.00;;;;;;5009119;28;20585;-75
2023/09/27 11:44:19;;;;;;;2.03;1.40;;;30.90;70.10;;;;;;4993448;28;20615;-75
2023/09/27 11:46:45;;;;;;;2.77;1.40;;;30.80;69.50;;;;;;5009497;28;20630;-74
2023/09/27 11:49:11;;;;;;;2.87;1.80;;;30.80;68.40;;;;;;5009112;28;20646;-74
2023/09/27 11:51:37;;;;;;;3.27;1.40;;;30.70;67.80;;;;;;5010307;28;20593;-75
2023/09/27 11:54:04;;;;;;;3.80;1.30;;;30.60;67.40;;;;;;5001895;28;20542;-75
2023/09/27 11:56:30;;;;;;;2.17;1.20;;;30.40;66.90;;;;;;5000671;28;20656;-75
2023/09/27 11:58:56;;;;;;;4.87;1.30;;;30.10;66.80;;;;;;5009330;28;20589;-75
2023/09/27 12:01:23;;;;;;;3.27;1.30;;;29.90;66.80;;;;;;5009457;28;21374;-74
2023/09/27 12:03:50;;;;;;;2.73;1.37;;;29.70;66.80;;;;;;5010876;28;20195;-76
2023/09/27 12:06:16;;;;;;;1.80;1.00;;;29.60;68.40;;;;;;5010418;28;20675;-76
2023/09/27 12:08:42;;;;;;;2.47;1.23;;;29.60;69.30;;;;;;5009403;28;21158;-73
2023/09/27 12:11:08;;;;;;;4.80;1.43;;;29.60;70.00;;;;;;5009229;28;20181;-76
2023/09/27 12:13:33;;;;;;;2.10;1.20;;;29.70;70.40;;;;;;5005260;28;20582;-76
2023/09/27 12:15:59;;;;;;;2.60;1.33;;;29.80;70.70;;;;;;5010289;28;20718;-76
2023/09/27 12:18:25;;;;;;;2.27;1.30;;;29.80;71.10;;;;;;5009137;28;20559;-76
2023/09/27 12:20:51;;;;;;;1.87;0.97;;;30.00;70.70;;;;;;4992795;28;20178;-76
2023/09/27 12:23:17;;;;;;;3.60;1.50;;;30.20;71.00;;;;;;5009366;28;20590;-76
2023/09/27 12:25:43;;;;;;;2.60;1.10;;;30.10;69.30;;;;;;5009212;28;20285;-73
2023/09/27 12:28:08;;;;;;;4.07;1.70;;;30.20;69.30;;;;;;5008928;28;20228;-73
2023/09/27 12:30:34;;;;;;;2.93;1.60;;;30.10;68.00;;;;;;5019003;28;21114;-74
2023/09/27 12:33:00;;;;;;;2.27;1.30;;;30.00;67.80;;;;;;5013977;28;20179;-73
2023/09/27 12:35:26;;;;;;;3.40;1.20;;;29.90;67.30;;;;;;5014128;28;20578;-74
2023/09/27 12:37:52;;;;;;;2.40;1.10;;;29.70;66.30;;;;;;4996228;28;20277;-73
2023/09/27 12:40:18;;;;;;;1.80;1.10;;;29.40;65.90;;;;;;4996018;28;20743;-73
2023/09/27 12:42:44;;;;;;;2.90;1.00;;;29.30;66.50;;;;;;5029819;28;20669;-73
2023/09/27 12:45:10;;;;;;;1.90;1.20;;;29.10;66.70;;;;;;5012977;28;20703;-74
2023/09/27 12:47:36;;;;;;;2.23;1.27;;;29.00;67.50;;;;;;5009052;28;20210;-75
2023/09/27 12:50:06;;;;;;;4.90;1.60;;;29.10;68.80;;;;;;4993747;28;20578;-75